sensor_id;sensor_type;location;lat;lon;timestamp;P1;durP1;ratioP1;P2;durP2;ratioP2
39896;SDS011;25567;48.276;14.242;2023-02-15T00:00:05;163.50;;;34.55;;
39896;SDS011;25567;48.276;14.242;2023-02-15T00:02:37;144.60;;;33.67;;
39896;SDS011;25567;48.276;14.242;2023-02-15T00:05:05;160.13;;;33.78;;
39896;SDS011;25567;48.276;14.242;2023-02-15T00:07:36;143.13;;;33.55;;
39896;SDS011;25567;48.276;14.242;2023-02-15T00:10:03;150.70;;;32.47;;
39896;SDS011;25567;48.276;14.242;2023-02-15T00:12:31;161.98;;;34.75;;
39896;SDS011;25567;48.276;14.242;2023-02-15T00:14:59;159.02;;;32.75;;
39896;SDS011;25567;48.276;14.242;2023-02-15T00:17:27;137.57;;;31.15;;
39896;SDS011;25567;48.276;14.242;2023-02-15T00:19:56;147.75;;;31.27;;
39896;SDS011;25567;48.276;14.242;2023-02-15T00:22:25;142.70;;;30.30;;
39896;SDS011;25567;48.276;14.242;2023-02-15T00:24:54;125.95;;;31.05;;
39896;SDS011;25567;48.276;14.242;2023-02-15T00:27:23;124.40;;;28.17;;
39896;SDS011;25567;48.276;14.242;2023-02-15T00:29:52;113.03;;;29.40;;
39896;SDS011;25567;48.276;14.242;2023-02-15T00:32:20;115.97;;;27.10;;
39896;SDS011;25567;48.276;14.242;2023-02-15T00:34:48;108.93;;;27.42;;
39896;SDS011;25567;48.276;14.242;2023-02-15T00:37:14;105.32;;;25.77;;
39896;SDS011;25567;48.276;14.242;2023-02-15T00:39:43;99.15;;;24.55;;
39896;SDS011;25567;48.276;14.242;2023-02-15T00:42:10;92.82;;;23.65;;
39896;SDS011;25567;48.276;14.242;2023-02-15T00:44:38;91.90;;;23.88;;
39896;SDS011;25567;48.276;14.242;2023-02-15T00:47:05;87.07;;;21.73;;
39896;SDS011;25567;48.276;14.242;2023-02-15T00:49:32;76.03;;;21.27;;
39896;SDS011;25567;48.276;14.242;2023-02-15T00:52:00;71.80;;;20.05;;
39896;SDS011;25567;48.276;14.242;2023-02-15T00:54:29;79.70;;;20.77;;
39896;SDS011;25567;48.276;14.242;2023-02-15T00:56:58;82.95;;;20.08;;
39896;SDS011;25567;48.276;14.242;2023-02-15T00:59:27;69.15;;;20.23;;
39896;SDS011;25567;48.276;14.242;2023-02-15T01:01:54;79.07;;;20.75;;
39896;SDS011;25567;48.276;14.242;2023-02-15T01:04:24;77.65;;;19.92;;
39896;SDS011;25567;48.276;14.242;2023-02-15T01:06:52;81.90;;;19.98;;
39896;SDS011;25567;48.276;14.242;2023-02-15T01:09:20;64.97;;;18.45;;
39896;SDS011;25567;48.276;14.242;2023-02-15T01:11:50;76.72;;;20.23;;
39896;SDS011;25567;48.276;14.242;2023-02-15T01:14:17;77.00;;;20.42;;
39896;SDS011;25567;48.276;14.242;2023-02-15T01:16:46;72.03;;;19.67;;
39896;SDS011;25567;48.276;14.242;2023-02-15T01:19:15;69.20;;;19.45;;
39896;SDS011;25567;48.276;14.242;2023-02-15T01:21:44;78.55;;;18.25;;
39896;SDS011;25567;48.276;14.242;2023-02-15T01:24:13;71.15;;;19.00;;
39896;SDS011;25567;48.276;14.242;2023-02-15T01:26:42;65.65;;;17.80;;
39896;SDS011;25567;48.276;14.242;2023-02-15T01:29:09;77.05;;;18.70;;
39896;SDS011;25567;48.276;14.242;2023-02-15T01:31:37;66.10;;;18.17;;
39896;SDS011;25567;48.276;14.242;2023-02-15T01:34:06;71.53;;;19.08;;
39896;SDS011;25567;48.276;14.242;2023-02-15T01:36:34;76.10;;;19.77;;
39896;SDS011;25567;48.276;14.242;2023-02-15T01:39:03;68.85;;;18.52;;
39896;SDS011;25567;48.276;14.242;2023-02-15T01:41:31;69.20;;;19.08;;
39896;SDS011;25567;48.276;14.242;2023-02-15T01:44:00;60.67;;;17.55;;
39896;SDS011;25567;48.276;14.242;2023-02-15T01:46:32;73.88;;;18.77;;
39896;SDS011;25567;48.276;14.242;2023-02-15T01:49:10;66.20;;;18.90;;
39896;SDS011;25567;48.276;14.242;2023-02-15T01:51:43;73.78;;;20.20;;
39896;SDS011;25567;48.276;14.242;2023-02-15T01:56:44;71.85;;;18.15;;
39896;SDS011;25567;48.276;14.242;2023-02-15T01:59:19;72.60;;;19.63;;
39896;SDS011;25567;48.276;14.242;2023-02-15T02:01:52;75.43;;;20.77;;
39896;SDS011;25567;48.276;14.242;2023-02-15T02:04:29;75.80;;;19.00;;
39896;SDS011;25567;48.276;14.242;2023-02-15T02:07:02;83.38;;;20.30;;
39896;SDS011;25567;48.276;14.242;2023-02-15T02:09:36;78.13;;;19.48;;
39896;SDS011;25567;48.276;14.242;2023-02-15T02:12:04;84.05;;;19.77;;
39896;SDS011;25567;48.276;14.242;2023-02-15T02:14:34;71.00;;;18.67;;
39896;SDS011;25567;48.276;14.242;2023-02-15T02:17:13;78.53;;;19.83;;
39896;SDS011;25567;48.276;14.242;2023-02-15T02:20:28;77.68;;;19.73;;
39896;SDS011;25567;48.276;14.242;2023-02-15T02:34:25;71.45;;;20.30;;
39896;SDS011;25567;48.276;14.242;2023-02-15T02:37:01;86.43;;;19.38;;
39896;SDS011;25567;48.276;14.242;2023-02-15T02:39:42;71.90;;;18.55;;
39896;SDS011;25567;48.276;14.242;2023-02-15T02:47:43;70.03;;;20.00;;
39896;SDS011;25567;48.276;14.242;2023-02-15T02:50:21;89.22;;;20.90;;
39896;SDS011;25567;48.276;14.242;2023-02-15T02:52:53;77.20;;;19.17;;
39896;SDS011;25567;48.276;14.242;2023-02-15T03:00:41;81.18;;;21.60;;
39896;SDS011;25567;48.276;14.242;2023-02-15T03:03:32;90.22;;;20.58;;
39896;SDS011;25567;48.276;14.242;2023-02-15T03:06:11;81.20;;;21.27;;
39896;SDS011;25567;48.276;14.242;2023-02-15T03:08:47;75.10;;;20.33;;
39896;SDS011;25567;48.276;14.242;2023-02-15T03:11:22;85.72;;;20.48;;
39896;SDS011;25567;48.276;14.242;2023-02-15T03:13:50;81.80;;;20.75;;
39896;SDS011;25567;48.276;14.242;2023-02-15T03:16:19;84.60;;;20.90;;
39896;SDS011;25567;48.276;14.242;2023-02-15T03:21:50;74.90;;;20.20;;
39896;SDS011;25567;48.276;14.242;2023-02-15T03:24:26;64.22;;;18.35;;
39896;SDS011;25567;48.276;14.242;2023-02-15T03:27:00;79.05;;;19.30;;
39896;SDS011;25567;48.276;14.242;2023-02-15T03:29:33;71.93;;;18.13;;
39896;SDS011;25567;48.276;14.242;2023-02-15T03:32:03;73.38;;;19.92;;
39896;SDS011;25567;48.276;14.242;2023-02-15T03:34:34;91.85;;;20.45;;
39896;SDS011;25567;48.276;14.242;2023-02-15T03:37:09;78.00;;;19.63;;
39896;SDS011;25567;48.276;14.242;2023-02-15T03:39:44;79.47;;;19.38;;
39896;SDS011;25567;48.276;14.242;2023-02-15T03:44:55;81.60;;;21.27;;
39896;SDS011;25567;48.276;14.242;2023-02-15T03:47:30;74.10;;;20.05;;
39896;SDS011;25567;48.276;14.242;2023-02-15T03:50:03;79.32;;;20.83;;
39896;SDS011;25567;48.276;14.242;2023-02-15T03:52:57;98.80;;;20.02;;
39896;SDS011;25567;48.276;14.242;2023-02-15T03:55:28;86.88;;;21.00;;
39896;SDS011;25567;48.276;14.242;2023-02-15T03:57:57;79.93;;;19.85;;
39896;SDS011;25567;48.276;14.242;2023-02-15T04:00:43;79.85;;;19.48;;
39896;SDS011;25567;48.276;14.242;2023-02-15T04:03:33;91.25;;;20.67;;
39896;SDS011;25567;48.276;14.242;2023-02-15T04:06:06;74.78;;;19.30;;
39896;SDS011;25567;48.276;14.242;2023-02-15T04:08:33;81.53;;;21.15;;
39896;SDS011;25567;48.276;14.242;2023-02-15T04:11:16;89.15;;;21.42;;
39896;SDS011;25567;48.276;14.242;2023-02-15T04:13:44;83.85;;;22.33;;
39896;SDS011;25567;48.276;14.242;2023-02-15T04:16:12;84.50;;;19.45;;
39896;SDS011;25567;48.276;14.242;2023-02-15T04:18:40;96.75;;;21.45;;
39896;SDS011;25567;48.276;14.242;2023-02-15T04:21:26;91.53;;;20.10;;
39896;SDS011;25567;48.276;14.242;2023-02-15T04:24:14;99.38;;;21.40;;
39896;SDS011;25567;48.276;14.242;2023-02-15T04:26:57;95.68;;;21.75;;
39896;SDS011;25567;48.276;14.242;2023-02-15T04:29:26;98.63;;;21.63;;
39896;SDS011;25567;48.276;14.242;2023-02-15T04:31:57;92.18;;;21.35;;
39896;SDS011;25567;48.276;14.242;2023-02-15T04:34:30;83.90;;;20.35;;
39896;SDS011;25567;48.276;14.242;2023-02-15T04:36:57;84.80;;;20.88;;
39896;SDS011;25567;48.276;14.242;2023-02-15T04:39:25;95.72;;;22.42;;
39896;SDS011;25567;48.276;14.242;2023-02-15T04:41:54;91.15;;;21.23;;
39896;SDS011;25567;48.276;14.242;2023-02-15T04:44:22;92.00;;;21.50;;
39896;SDS011;25567;48.276;14.242;2023-02-15T04:46:51;94.82;;;21.02;;
39896;SDS011;25567;48.276;14.242;2023-02-15T04:49:22;97.97;;;21.38;;
39896;SDS011;25567;48.276;14.242;2023-02-15T04:51:51;113.95;;;23.83;;
39896;SDS011;25567;48.276;14.242;2023-02-15T04:54:19;92.65;;;22.23;;
39896;SDS011;25567;48.276;14.242;2023-02-15T04:56:46;104.18;;;22.17;;
39896;SDS011;25567;48.276;14.242;2023-02-15T04:59:16;100.43;;;22.95;;
39896;SDS011;25567;48.276;14.242;2023-02-15T05:01:43;99.57;;;22.63;;
39896;SDS011;25567;48.276;14.242;2023-02-15T05:04:12;95.82;;;21.20;;
39896;SDS011;25567;48.276;14.242;2023-02-15T05:06:40;97.95;;;23.75;;
39896;SDS011;25567;48.276;14.242;2023-02-15T05:09:10;107.65;;;23.35;;
39896;SDS011;25567;48.276;14.242;2023-02-15T05:11:37;109.35;;;24.45;;
39896;SDS011;25567;48.276;14.242;2023-02-15T05:14:07;82.97;;;21.02;;
39896;SDS011;25567;48.276;14.242;2023-02-15T05:16:34;107.00;;;24.48;;
39896;SDS011;25567;48.276;14.242;2023-02-15T05:19:02;100.82;;;21.35;;
39896;SDS011;25567;48.276;14.242;2023-02-15T05:21:29;99.38;;;23.20;;
39896;SDS011;25567;48.276;14.242;2023-02-15T05:23:57;100.00;;;23.17;;
39896;SDS011;25567;48.276;14.242;2023-02-15T05:26:25;92.63;;;22.35;;
39896;SDS011;25567;48.276;14.242;2023-02-15T05:29:08;94.45;;;24.33;;
39896;SDS011;25567;48.276;14.242;2023-02-15T05:31:36;98.63;;;23.63;;
39896;SDS011;25567;48.276;14.242;2023-02-15T05:34:05;85.10;;;22.08;;
39896;SDS011;25567;48.276;14.242;2023-02-15T05:36:32;90.57;;;22.35;;
39896;SDS011;25567;48.276;14.242;2023-02-15T05:39:01;108.22;;;24.55;;
39896;SDS011;25567;48.276;14.242;2023-02-15T05:41:30;91.00;;;21.83;;
39896;SDS011;25567;48.276;14.242;2023-02-15T05:43:57;93.72;;;23.20;;
39896;SDS011;25567;48.276;14.242;2023-02-15T05:46:25;107.97;;;24.38;;
39896;SDS011;25567;48.276;14.242;2023-02-15T05:48:54;106.30;;;23.38;;
39896;SDS011;25567;48.276;14.242;2023-02-15T05:51:23;101.93;;;22.65;;
39896;SDS011;25567;48.276;14.242;2023-02-15T05:53:51;95.95;;;23.10;;
39896;SDS011;25567;48.276;14.242;2023-02-15T05:56:18;100.22;;;23.10;;
39896;SDS011;25567;48.276;14.242;2023-02-15T05:58:46;108.95;;;24.10;;
39896;SDS011;25567;48.276;14.242;2023-02-15T06:01:18;95.72;;;23.33;;
39896;SDS011;25567;48.276;14.242;2023-02-15T06:03:50;92.00;;;23.40;;
39896;SDS011;25567;48.276;14.242;2023-02-15T06:06:20;90.63;;;23.17;;
39896;SDS011;25567;48.276;14.242;2023-02-15T06:08:50;90.85;;;23.20;;
39896;SDS011;25567;48.276;14.242;2023-02-15T06:11:23;99.90;;;25.00;;
39896;SDS011;25567;48.276;14.242;2023-02-15T06:13:51;108.50;;;24.35;;
39896;SDS011;25567;48.276;14.242;2023-02-15T06:16:19;84.18;;;21.88;;
39896;SDS011;25567;48.276;14.242;2023-02-15T06:18:48;91.03;;;23.40;;
39896;SDS011;25567;48.276;14.242;2023-02-15T06:21:18;94.65;;;23.10;;
39896;SDS011;25567;48.276;14.242;2023-02-15T06:23:47;115.28;;;28.42;;
39896;SDS011;25567;48.276;14.242;2023-02-15T06:26:16;104.35;;;25.02;;
39896;SDS011;25567;48.276;14.242;2023-02-15T06:28:43;101.25;;;26.88;;
39896;SDS011;25567;48.276;14.242;2023-02-15T06:31:12;111.20;;;24.75;;
39896;SDS011;25567;48.276;14.242;2023-02-15T06:33:41;98.18;;;24.80;;
39896;SDS011;25567;48.276;14.242;2023-02-15T06:36:09;108.00;;;28.60;;
39896;SDS011;25567;48.276;14.242;2023-02-15T06:38:38;114.47;;;26.42;;
39896;SDS011;25567;48.276;14.242;2023-02-15T06:41:05;97.13;;;25.38;;
39896;SDS011;25567;48.276;14.242;2023-02-15T06:43:32;99.72;;;23.45;;
39896;SDS011;25567;48.276;14.242;2023-02-15T06:46:02;100.88;;;24.05;;
39896;SDS011;25567;48.276;14.242;2023-02-15T06:48:32;94.50;;;24.63;;
39896;SDS011;25567;48.276;14.242;2023-02-15T06:51:00;97.70;;;22.17;;
39896;SDS011;25567;48.276;14.242;2023-02-15T06:53:27;92.00;;;23.42;;
39896;SDS011;25567;48.276;14.242;2023-02-15T06:56:01;92.30;;;21.67;;
39896;SDS011;25567;48.276;14.242;2023-02-15T06:58:34;106.60;;;23.27;;
39896;SDS011;25567;48.276;14.242;2023-02-15T07:01:04;103.35;;;23.42;;
39896;SDS011;25567;48.276;14.242;2023-02-15T07:03:32;92.35;;;23.58;;
39896;SDS011;25567;48.276;14.242;2023-02-15T07:06:03;91.28;;;21.48;;
39896;SDS011;25567;48.276;14.242;2023-02-15T07:08:36;95.22;;;22.42;;
39896;SDS011;25567;48.276;14.242;2023-02-15T07:11:06;101.25;;;22.48;;
39896;SDS011;25567;48.276;14.242;2023-02-15T07:13:50;104.70;;;22.85;;
39896;SDS011;25567;48.276;14.242;2023-02-15T07:16:20;81.22;;;21.42;;
39896;SDS011;25567;48.276;14.242;2023-02-15T07:18:49;84.28;;;21.48;;
39896;SDS011;25567;48.276;14.242;2023-02-15T07:21:19;93.97;;;22.42;;
39896;SDS011;25567;48.276;14.242;2023-02-15T07:23:48;80.75;;;20.75;;
39896;SDS011;25567;48.276;14.242;2023-02-15T07:26:16;95.40;;;21.23;;
39896;SDS011;25567;48.276;14.242;2023-02-15T07:28:44;85.00;;;21.85;;
39896;SDS011;25567;48.276;14.242;2023-02-15T07:31:14;86.57;;;21.45;;
39896;SDS011;25567;48.276;14.242;2023-02-15T07:33:42;86.55;;;21.38;;
39896;SDS011;25567;48.276;14.242;2023-02-15T07:36:12;91.82;;;22.23;;
39896;SDS011;25567;48.276;14.242;2023-02-15T07:38:41;103.75;;;22.63;;
39896;SDS011;25567;48.276;14.242;2023-02-15T07:41:13;92.07;;;21.38;;
39896;SDS011;25567;48.276;14.242;2023-02-15T07:43:44;107.78;;;23.05;;
39896;SDS011;25567;48.276;14.242;2023-02-15T07:46:15;98.07;;;24.35;;
39896;SDS011;25567;48.276;14.242;2023-02-15T07:48:44;99.15;;;24.17;;
39896;SDS011;25567;48.276;14.242;2023-02-15T07:51:13;81.85;;;20.88;;
39896;SDS011;25567;48.276;14.242;2023-02-15T07:53:43;90.72;;;22.20;;
39896;SDS011;25567;48.276;14.242;2023-02-15T07:56:13;78.22;;;20.75;;
39896;SDS011;25567;48.276;14.242;2023-02-15T07:58:45;83.57;;;20.23;;
39896;SDS011;25567;48.276;14.242;2023-02-15T08:01:24;90.20;;;20.67;;
39896;SDS011;25567;48.276;14.242;2023-02-15T08:03:57;84.57;;;21.10;;
39896;SDS011;25567;48.276;14.242;2023-02-15T08:06:28;91.97;;;19.92;;
39896;SDS011;25567;48.276;14.242;2023-02-15T08:09:00;76.00;;;19.25;;
39896;SDS011;25567;48.276;14.242;2023-02-15T08:11:30;74.93;;;20.08;;
39896;SDS011;25567;48.276;14.242;2023-02-15T08:16:40;97.43;;;22.23;;
39896;SDS011;25567;48.276;14.242;2023-02-15T08:21:46;105.57;;;22.67;;
39896;SDS011;25567;48.276;14.242;2023-02-15T08:24:18;101.13;;;25.10;;
39896;SDS011;25567;48.276;14.242;2023-02-15T08:26:48;99.40;;;24.52;;
39896;SDS011;25567;48.276;14.242;2023-02-15T08:29:19;117.88;;;27.27;;
39896;SDS011;25567;48.276;14.242;2023-02-15T08:31:53;107.30;;;27.65;;
39896;SDS011;25567;48.276;14.242;2023-02-15T08:34:24;118.45;;;28.63;;
39896;SDS011;25567;48.276;14.242;2023-02-15T08:36:52;114.95;;;28.45;;
39896;SDS011;25567;48.276;14.242;2023-02-15T08:39:22;133.02;;;28.00;;
39896;SDS011;25567;48.276;14.242;2023-02-15T08:41:51;121.63;;;29.45;;
39896;SDS011;25567;48.276;14.242;2023-02-15T08:44:21;122.75;;;30.17;;
39896;SDS011;25567;48.276;14.242;2023-02-15T08:46:50;104.95;;;29.15;;
39896;SDS011;25567;48.276;14.242;2023-02-15T08:49:20;109.22;;;29.75;;
39896;SDS011;25567;48.276;14.242;2023-02-15T08:51:49;114.07;;;29.15;;
39896;SDS011;25567;48.276;14.242;2023-02-15T08:54:19;144.43;;;32.95;;
39896;SDS011;25567;48.276;14.242;2023-02-15T08:56:50;126.53;;;29.73;;
39896;SDS011;25567;48.276;14.242;2023-02-15T08:59:20;125.65;;;29.67;;
39896;SDS011;25567;48.276;14.242;2023-02-15T09:01:50;128.30;;;29.95;;
39896;SDS011;25567;48.276;14.242;2023-02-15T09:04:22;122.50;;;31.17;;
39896;SDS011;25567;48.276;14.242;2023-02-15T09:06:50;137.45;;;32.00;;
39896;SDS011;25567;48.276;14.242;2023-02-15T09:09:21;143.25;;;32.35;;
39896;SDS011;25567;48.276;14.242;2023-02-15T09:11:50;132.75;;;29.88;;
39896;SDS011;25567;48.276;14.242;2023-02-15T09:14:26;117.00;;;28.65;;
39896;SDS011;25567;48.276;14.242;2023-02-15T09:16:55;116.70;;;29.48;;
39896;SDS011;25567;48.276;14.242;2023-02-15T09:19:24;135.15;;;31.02;;
39896;SDS011;25567;48.276;14.242;2023-02-15T09:21:53;116.13;;;28.13;;
39896;SDS011;25567;48.276;14.242;2023-02-15T09:24:22;126.97;;;30.20;;
39896;SDS011;25567;48.276;14.242;2023-02-15T09:26:52;135.35;;;30.83;;
39896;SDS011;25567;48.276;14.242;2023-02-15T09:29:21;123.18;;;29.05;;
39896;SDS011;25567;48.276;14.242;2023-02-15T09:31:51;114.15;;;28.30;;
39896;SDS011;25567;48.276;14.242;2023-02-15T09:34:20;118.88;;;28.48;;
39896;SDS011;25567;48.276;14.242;2023-02-15T09:36:50;118.20;;;27.85;;
39896;SDS011;25567;48.276;14.242;2023-02-15T09:39:21;113.72;;;28.88;;
39896;SDS011;25567;48.276;14.242;2023-02-15T09:47:34;117.20;;;27.65;;
39896;SDS011;25567;48.276;14.242;2023-02-15T09:58:22;124.93;;;29.50;;
39896;SDS011;25567;48.276;14.242;2023-02-15T10:01:08;113.43;;;29.25;;
39896;SDS011;25567;48.276;14.242;2023-02-15T10:04:12;123.93;;;29.73;;
39896;SDS011;25567;48.276;14.242;2023-02-15T10:07:12;126.95;;;29.35;;
39896;SDS011;25567;48.276;14.242;2023-02-15T10:15:53;119.45;;;30.60;;
39896;SDS011;25567;48.276;14.242;2023-02-15T10:21:19;151.40;;;37.88;;
39896;SDS011;25567;48.276;14.242;2023-02-15T10:27:17;144.02;;;34.40;;
39896;SDS011;25567;48.276;14.242;2023-02-15T10:32:35;155.00;;;40.15;;
39896;SDS011;25567;48.276;14.242;2023-02-15T10:35:24;148.35;;;37.15;;
39896;SDS011;25567;48.276;14.242;2023-02-15T10:43:56;147.15;;;38.75;;
39896;SDS011;25567;48.276;14.242;2023-02-15T10:46:39;162.68;;;40.33;;
39896;SDS011;25567;48.276;14.242;2023-02-15T10:49:12;154.75;;;38.58;;
39896;SDS011;25567;48.276;14.242;2023-02-15T10:51:58;181.95;;;42.65;;
39896;SDS011;25567;48.276;14.242;2023-02-15T10:54:45;166.95;;;42.30;;
39896;SDS011;25567;48.276;14.242;2023-02-15T10:57:26;179.30;;;41.63;;
39896;SDS011;25567;48.276;14.242;2023-02-15T11:08:33;102.45;;;26.38;;
39896;SDS011;25567;48.276;14.242;2023-02-15T11:11:09;111.43;;;30.38;;
39896;SDS011;25567;48.276;14.242;2023-02-15T11:13:44;126.30;;;32.97;;
39896;SDS011;25567;48.276;14.242;2023-02-15T11:16:20;122.70;;;31.40;;
39896;SDS011;25567;48.276;14.242;2023-02-15T11:21:36;145.77;;;32.78;;
39896;SDS011;25567;48.276;14.242;2023-02-15T11:24:11;133.20;;;34.05;;
39896;SDS011;25567;48.276;14.242;2023-02-15T11:26:46;144.50;;;36.72;;
39896;SDS011;25567;48.276;14.242;2023-02-15T11:29:22;152.50;;;37.95;;
39896;SDS011;25567;48.276;14.242;2023-02-15T11:31:56;142.15;;;37.58;;
39896;SDS011;25567;48.276;14.242;2023-02-15T11:34:37;160.30;;;39.05;;
39896;SDS011;25567;48.276;14.242;2023-02-15T11:37:13;153.40;;;39.13;;
39896;SDS011;25567;48.276;14.242;2023-02-15T11:39:46;151.48;;;37.58;;
39896;SDS011;25567;48.276;14.242;2023-02-15T11:42:19;145.65;;;38.13;;
39896;SDS011;25567;48.276;14.242;2023-02-15T11:47:32;167.13;;;38.28;;
39896;SDS011;25567;48.276;14.242;2023-02-15T11:49:59;154.40;;;39.33;;
39896;SDS011;25567;48.276;14.242;2023-02-15T11:52:29;154.77;;;40.15;;
39896;SDS011;25567;48.276;14.242;2023-02-15T11:54:57;141.18;;;35.33;;
39896;SDS011;25567;48.276;14.242;2023-02-15T11:57:31;146.10;;;35.45;;
39896;SDS011;25567;48.276;14.242;2023-02-15T12:00:10;130.77;;;33.00;;
39896;SDS011;25567;48.276;14.242;2023-02-15T12:02:45;143.32;;;36.33;;
39896;SDS011;25567;48.276;14.242;2023-02-15T12:05:20;137.98;;;36.15;;
39896;SDS011;25567;48.276;14.242;2023-02-15T12:07:54;163.30;;;40.78;;
39896;SDS011;25567;48.276;14.242;2023-02-15T12:10:28;166.57;;;41.63;;
39896;SDS011;25567;48.276;14.242;2023-02-15T12:15:50;155.75;;;40.33;;
39896;SDS011;25567;48.276;14.242;2023-02-15T12:18:26;146.30;;;38.95;;
39896;SDS011;25567;48.276;14.242;2023-02-15T12:21:02;151.35;;;37.88;;
39896;SDS011;25567;48.276;14.242;2023-02-15T12:23:43;153.45;;;38.35;;
39896;SDS011;25567;48.276;14.242;2023-02-15T12:26:24;151.02;;;37.13;;
39896;SDS011;25567;48.276;14.242;2023-02-15T12:28:58;150.70;;;38.05;;
39896;SDS011;25567;48.276;14.242;2023-02-15T12:31:32;137.57;;;34.40;;
39896;SDS011;25567;48.276;14.242;2023-02-15T12:34:07;166.68;;;39.45;;
39896;SDS011;25567;48.276;14.242;2023-02-15T12:36:43;144.23;;;37.38;;
39896;SDS011;25567;48.276;14.242;2023-02-15T12:39:22;150.32;;;38.58;;
39896;SDS011;25567;48.276;14.242;2023-02-15T12:46:57;136.75;;;35.97;;
39896;SDS011;25567;48.276;14.242;2023-02-15T12:52:02;153.80;;;37.17;;
39896;SDS011;25567;48.276;14.242;2023-02-15T12:54:39;181.68;;;42.90;;
39896;SDS011;25567;48.276;14.242;2023-02-15T12:57:14;165.73;;;41.92;;
39896;SDS011;25567;48.276;14.242;2023-02-15T12:59:58;164.02;;;40.03;;
39896;SDS011;25567;48.276;14.242;2023-02-15T13:02:30;164.30;;;41.28;;
39896;SDS011;25567;48.276;14.242;2023-02-15T13:07:56;152.43;;;38.45;;
39896;SDS011;25567;48.276;14.242;2023-02-15T13:10:28;151.90;;;38.42;;
39896;SDS011;25567;48.276;14.242;2023-02-15T13:13:00;137.43;;;36.53;;
39896;SDS011;25567;48.276;14.242;2023-02-15T13:15:31;133.90;;;35.58;;
39896;SDS011;25567;48.276;14.242;2023-02-15T13:18:05;134.93;;;33.88;;
39896;SDS011;25567;48.276;14.242;2023-02-15T13:20:40;143.00;;;36.55;;
39896;SDS011;25567;48.276;14.242;2023-02-15T13:23:24;154.75;;;35.90;;
39896;SDS011;25567;48.276;14.242;2023-02-15T13:25:57;163.48;;;38.60;;
39896;SDS011;25567;48.276;14.242;2023-02-15T13:28:36;155.88;;;37.70;;
39896;SDS011;25567;48.276;14.242;2023-02-15T13:31:13;159.50;;;40.83;;
39896;SDS011;25567;48.276;14.242;2023-02-15T13:33:49;174.05;;;38.58;;
39896;SDS011;25567;48.276;14.242;2023-02-15T13:39:17;156.85;;;39.25;;
39896;SDS011;25567;48.276;14.242;2023-02-15T13:42:09;137.38;;;35.92;;
39896;SDS011;25567;48.276;14.242;2023-02-15T13:47:22;158.35;;;39.00;;
39896;SDS011;25567;48.276;14.242;2023-02-15T13:52:33;125.60;;;32.85;;
39896;SDS011;25567;48.276;14.242;2023-02-15T14:03:00;153.95;;;40.03;;
39896;SDS011;25567;48.276;14.242;2023-02-15T14:08:37;165.23;;;40.40;;
39896;SDS011;25567;48.276;14.242;2023-02-15T14:16:51;153.43;;;38.65;;
39896;SDS011;25567;48.276;14.242;2023-02-15T14:22:10;128.65;;;36.75;;
39896;SDS011;25567;48.276;14.242;2023-02-15T14:24:44;136.57;;;37.10;;
39896;SDS011;25567;48.276;14.242;2023-02-15T14:30:13;166.50;;;41.25;;
39896;SDS011;25567;48.276;14.242;2023-02-15T14:32:49;151.82;;;40.63;;
39896;SDS011;25567;48.276;14.242;2023-02-15T14:35:24;173.93;;;43.28;;
39896;SDS011;25567;48.276;14.242;2023-02-15T14:40:30;188.20;;;45.70;;
39896;SDS011;25567;48.276;14.242;2023-02-15T14:43:24;168.63;;;42.35;;
39896;SDS011;25567;48.276;14.242;2023-02-15T14:48:53;171.18;;;43.10;;
39896;SDS011;25567;48.276;14.242;2023-02-15T14:54:10;135.48;;;37.05;;
39896;SDS011;25567;48.276;14.242;2023-02-15T15:02:28;156.00;;;40.80;;
39896;SDS011;25567;48.276;14.242;2023-02-15T15:12:48;143.13;;;37.80;;
39896;SDS011;25567;48.276;14.242;2023-02-15T15:18:07;146.32;;;37.30;;
39896;SDS011;25567;48.276;14.242;2023-02-15T15:20:44;159.75;;;40.90;;
39896;SDS011;25567;48.276;14.242;2023-02-15T15:34:00;141.30;;;36.30;;
39896;SDS011;25567;48.276;14.242;2023-02-15T15:36:55;148.63;;;39.35;;
39896;SDS011;25567;48.276;14.242;2023-02-15T15:45:26;145.30;;;40.05;;
39896;SDS011;25567;48.276;14.242;2023-02-15T15:48:22;142.05;;;39.47;;
39896;SDS011;25567;48.276;14.242;2023-02-15T15:51:10;143.45;;;37.72;;
39896;SDS011;25567;48.276;14.242;2023-02-15T15:53:40;132.43;;;36.55;;
39896;SDS011;25567;48.276;14.242;2023-02-15T15:56:14;164.05;;;43.45;;
39896;SDS011;25567;48.276;14.242;2023-02-15T15:58:48;152.00;;;43.80;;
39896;SDS011;25567;48.276;14.242;2023-02-15T16:01:24;167.68;;;42.78;;
39896;SDS011;25567;48.276;14.242;2023-02-15T16:03:56;152.45;;;41.92;;
39896;SDS011;25567;48.276;14.242;2023-02-15T16:06:29;165.27;;;42.97;;
39896;SDS011;25567;48.276;14.242;2023-02-15T16:09:15;147.50;;;38.05;;
39896;SDS011;25567;48.276;14.242;2023-02-15T16:11:48;129.48;;;36.85;;
39896;SDS011;25567;48.276;14.242;2023-02-15T16:14:26;149.63;;;38.80;;
39896;SDS011;25567;48.276;14.242;2023-02-15T16:16:57;165.85;;;42.03;;
39896;SDS011;25567;48.276;14.242;2023-02-15T16:19:29;153.20;;;38.42;;
39896;SDS011;25567;48.276;14.242;2023-02-15T16:22:03;153.00;;;39.22;;
39896;SDS011;25567;48.276;14.242;2023-02-15T16:24:37;140.63;;;37.30;;
39896;SDS011;25567;48.276;14.242;2023-02-15T16:27:31;154.63;;;39.33;;
39896;SDS011;25567;48.276;14.242;2023-02-15T16:32:52;157.70;;;39.50;;
39896;SDS011;25567;48.276;14.242;2023-02-15T16:35:23;167.57;;;42.53;;
39896;SDS011;25567;48.276;14.242;2023-02-15T16:37:52;170.45;;;42.35;;
39896;SDS011;25567;48.276;14.242;2023-02-15T16:40:27;176.38;;;43.65;;
39896;SDS011;25567;48.276;14.242;2023-02-15T16:43:04;170.32;;;42.47;;
39896;SDS011;25567;48.276;14.242;2023-02-15T16:45:36;183.57;;;43.83;;
39896;SDS011;25567;48.276;14.242;2023-02-15T16:48:08;174.25;;;43.10;;
39896;SDS011;25567;48.276;14.242;2023-02-15T16:50:46;170.65;;;42.22;;
39896;SDS011;25567;48.276;14.242;2023-02-15T16:53:22;167.27;;;41.83;;
39896;SDS011;25567;48.276;14.242;2023-02-15T16:55:57;151.50;;;41.40;;
39896;SDS011;25567;48.276;14.242;2023-02-15T16:58:38;154.52;;;39.40;;
39896;SDS011;25567;48.276;14.242;2023-02-15T17:01:12;143.82;;;40.58;;
39896;SDS011;25567;48.276;14.242;2023-02-15T17:03:43;167.25;;;41.45;;
39896;SDS011;25567;48.276;14.242;2023-02-15T17:06:21;148.93;;;39.55;;
39896;SDS011;25567;48.276;14.242;2023-02-15T17:08:54;169.00;;;41.90;;
39896;SDS011;25567;48.276;14.242;2023-02-15T17:11:34;150.50;;;39.90;;
39896;SDS011;25567;48.276;14.242;2023-02-15T17:19:23;160.88;;;40.97;;
39896;SDS011;25567;48.276;14.242;2023-02-15T17:21:54;151.48;;;39.15;;
39896;SDS011;25567;48.276;14.242;2023-02-15T17:24:35;165.23;;;40.38;;
39896;SDS011;25567;48.276;14.242;2023-02-15T17:27:10;153.70;;;38.03;;
39896;SDS011;25567;48.276;14.242;2023-02-15T17:29:46;165.45;;;40.53;;